sensor_id;sensor_type;location;lat;lon;timestamp;P1;durP1;ratioP1;P2;durP2;ratioP2
45618;SDS011;31343;47.520;19.144;2022-12-08T00:01:07;33.25;;;16.92;;
45618;SDS011;31343;47.520;19.144;2022-12-08T00:03:35;31.65;;;16.92;;
45618;SDS011;31343;47.520;19.144;2022-12-08T00:06:01;38.22;;;19.30;;
45618;SDS011;31343;47.520;19.144;2022-12-08T00:08:47;34.03;;;17.10;;
45618;SDS011;31343;47.520;19.144;2022-12-08T00:11:32;29.20;;;17.00;;
45618;SDS011;31343;47.520;19.144;2022-12-08T00:13:58;34.78;;;17.75;;
45618;SDS011;31343;47.520;19.144;2022-12-08T00:16:24;31.75;;;18.38;;
45618;SDS011;31343;47.520;19.144;2022-12-08T00:18:49;34.38;;;16.70;;
45618;SDS011;31343;47.520;19.144;2022-12-08T00:21:15;32.92;;;16.63;;
45618;SDS011;31343;47.520;19.144;2022-12-08T00:23:41;33.03;;;17.00;;
45618;SDS011;31343;47.520;19.144;2022-12-08T00:26:07;32.58;;;18.92;;
45618;SDS011;31343;47.520;19.144;2022-12-08T00:28:33;30.35;;;16.88;;
45618;SDS011;31343;47.520;19.144;2022-12-08T00:30:59;30.20;;;17.10;;
45618;SDS011;31343;47.520;19.144;2022-12-08T00:33:32;30.63;;;18.42;;
45618;SDS011;31343;47.520;19.144;2022-12-08T00:36:03;29.17;;;16.85;;
45618;SDS011;31343;47.520;19.144;2022-12-08T00:38:30;31.40;;;18.27;;
45618;SDS011;31343;47.520;19.144;2022-12-08T00:40:56;35.33;;;17.67;;
45618;SDS011;31343;47.520;19.144;2022-12-08T00:43:21;30.33;;;16.00;;
45618;SDS011;31343;47.520;19.144;2022-12-08T00:45:47;30.55;;;17.40;;
45618;SDS011;31343;47.520;19.144;2022-12-08T00:48:12;29.85;;;16.95;;
45618;SDS011;31343;47.520;19.144;2022-12-08T00:50:38;36.00;;;18.02;;
45618;SDS011;31343;47.520;19.144;2022-12-08T00:53:04;28.85;;;17.40;;
45618;SDS011;31343;47.520;19.144;2022-12-08T00:55:29;25.35;;;16.17;;
45618;SDS011;31343;47.520;19.144;2022-12-08T00:57:55;36.78;;;19.40;;
45618;SDS011;31343;47.520;19.144;2022-12-08T01:00:21;42.15;;;19.58;;
45618;SDS011;31343;47.520;19.144;2022-12-08T01:02:46;36.53;;;19.13;;
45618;SDS011;31343;47.520;19.144;2022-12-08T01:05:12;36.58;;;18.80;;
45618;SDS011;31343;47.520;19.144;2022-12-08T01:07:38;32.70;;;18.63;;
45618;SDS011;31343;47.520;19.144;2022-12-08T01:10:03;33.35;;;20.27;;
45618;SDS011;31343;47.520;19.144;2022-12-08T01:12:30;42.05;;;20.02;;
45618;SDS011;31343;47.520;19.144;2022-12-08T01:14:55;39.08;;;20.83;;
45618;SDS011;31343;47.520;19.144;2022-12-08T01:17:21;38.00;;;21.92;;
45618;SDS011;31343;47.520;19.144;2022-12-08T01:19:46;39.30;;;20.73;;
45618;SDS011;31343;47.520;19.144;2022-12-08T01:22:12;36.90;;;18.30;;
45618;SDS011;31343;47.520;19.144;2022-12-08T01:24:38;31.80;;;19.13;;
45618;SDS011;31343;47.520;19.144;2022-12-08T01:27:03;38.35;;;20.08;;
45618;SDS011;31343;47.520;19.144;2022-12-08T01:29:29;36.50;;;20.25;;
45618;SDS011;31343;47.520;19.144;2022-12-08T01:31:55;38.38;;;21.63;;
45618;SDS011;31343;47.520;19.144;2022-12-08T01:34:20;41.35;;;20.25;;
45618;SDS011;31343;47.520;19.144;2022-12-08T01:36:46;36.92;;;19.77;;
45618;SDS011;31343;47.520;19.144;2022-12-08T01:39:16;34.60;;;20.02;;
45618;SDS011;31343;47.520;19.144;2022-12-08T01:41:42;38.67;;;20.63;;
45618;SDS011;31343;47.520;19.144;2022-12-08T01:46:36;36.83;;;20.38;;
45618;SDS011;31343;47.520;19.144;2022-12-08T01:49:07;35.17;;;20.75;;
45618;SDS011;31343;47.520;19.144;2022-12-08T01:54:15;35.28;;;18.95;;
45618;SDS011;31343;47.520;19.144;2022-12-08T01:56:45;36.03;;;19.55;;
45618;SDS011;31343;47.520;19.144;2022-12-08T01:59:33;37.05;;;19.67;;
45618;SDS011;31343;47.520;19.144;2022-12-08T02:02:03;37.88;;;21.25;;
45618;SDS011;31343;47.520;19.144;2022-12-08T02:04:29;31.45;;;18.35;;
45618;SDS011;31343;47.520;19.144;2022-12-08T02:06:54;31.55;;;17.55;;
45618;SDS011;31343;47.520;19.144;2022-12-08T02:09:20;32.97;;;18.92;;
45618;SDS011;31343;47.520;19.144;2022-12-08T02:11:46;39.00;;;21.10;;
45618;SDS011;31343;47.520;19.144;2022-12-08T02:14:13;33.67;;;18.27;;
45618;SDS011;31343;47.520;19.144;2022-12-08T02:42:10;33.55;;;19.73;;
45618;SDS011;31343;47.520;19.144;2022-12-08T02:44:54;35.65;;;18.80;;
45618;SDS011;31343;47.520;19.144;2022-12-08T02:47:25;38.58;;;19.60;;
45618;SDS011;31343;47.520;19.144;2022-12-08T02:49:53;35.90;;;18.17;;
45618;SDS011;31343;47.520;19.144;2022-12-08T02:54:46;35.28;;;19.88;;
45618;SDS011;31343;47.520;19.144;2022-12-08T03:00:23;35.40;;;19.03;;
45618;SDS011;31343;47.520;19.144;2022-12-08T03:13:47;36.58;;;19.30;;
45618;SDS011;31343;47.520;19.144;2022-12-08T03:16:21;35.35;;;19.75;;
45618;SDS011;31343;47.520;19.144;2022-12-08T03:18:59;30.40;;;18.05;;
45618;SDS011;31343;47.520;19.144;2022-12-08T03:21:30;37.20;;;18.63;;
45618;SDS011;31343;47.520;19.144;2022-12-08T03:23:58;38.90;;;20.52;;
45618;SDS011;31343;47.520;19.144;2022-12-08T03:26:37;34.45;;;18.80;;
45618;SDS011;31343;47.520;19.144;2022-12-08T03:29:09;28.73;;;17.65;;
45618;SDS011;31343;47.520;19.144;2022-12-08T03:31:38;35.50;;;19.13;;
45618;SDS011;31343;47.520;19.144;2022-12-08T03:34:06;35.65;;;20.92;;
45618;SDS011;31343;47.520;19.144;2022-12-08T03:36:34;30.30;;;19.45;;
45618;SDS011;31343;47.520;19.144;2022-12-08T03:39:00;39.42;;;21.48;;
45618;SDS011;31343;47.520;19.144;2022-12-08T03:41:26;42.67;;;19.85;;
45618;SDS011;31343;47.520;19.144;2022-12-08T03:43:52;29.63;;;19.20;;
45618;SDS011;31343;47.520;19.144;2022-12-08T03:46:21;31.08;;;18.15;;
45618;SDS011;31343;47.520;19.144;2022-12-08T03:48:48;36.55;;;20.52;;
45618;SDS011;31343;47.520;19.144;2022-12-08T03:51:14;32.40;;;18.77;;
45618;SDS011;31343;47.520;19.144;2022-12-08T03:53:40;36.17;;;19.75;;
45618;SDS011;31343;47.520;19.144;2022-12-08T03:56:14;33.83;;;19.10;;
45618;SDS011;31343;47.520;19.144;2022-12-08T03:58:45;29.58;;;17.85;;
45618;SDS011;31343;47.520;19.144;2022-12-08T04:01:11;31.20;;;17.30;;
45618;SDS011;31343;47.520;19.144;2022-12-08T04:03:37;34.55;;;19.63;;
45618;SDS011;31343;47.520;19.144;2022-12-08T04:06:03;29.55;;;16.48;;
45618;SDS011;31343;47.520;19.144;2022-12-08T04:08:29;35.00;;;17.00;;
45618;SDS011;31343;47.520;19.144;2022-12-08T04:10:54;32.13;;;19.08;;
45618;SDS011;31343;47.520;19.144;2022-12-08T04:13:20;35.67;;;21.13;;
45618;SDS011;31343;47.520;19.144;2022-12-08T04:15:46;32.35;;;19.33;;
45618;SDS011;31343;47.520;19.144;2022-12-08T04:18:12;29.85;;;18.45;;
45618;SDS011;31343;47.520;19.144;2022-12-08T04:20:38;32.20;;;18.27;;
45618;SDS011;31343;47.520;19.144;2022-12-08T04:23:06;36.40;;;20.08;;
45618;SDS011;31343;47.520;19.144;2022-12-08T04:25:32;37.95;;;20.08;;
45618;SDS011;31343;47.520;19.144;2022-12-08T04:27:57;36.38;;;19.08;;
45618;SDS011;31343;47.520;19.144;2022-12-08T04:30:23;43.65;;;24.25;;
45618;SDS011;31343;47.520;19.144;2022-12-08T04:32:49;48.38;;;24.35;;
45618;SDS011;31343;47.520;19.144;2022-12-08T04:35:15;36.17;;;21.73;;
45618;SDS011;31343;47.520;19.144;2022-12-08T04:37:41;37.00;;;20.05;;
45618;SDS011;31343;47.520;19.144;2022-12-08T04:40:08;35.47;;;20.58;;
45618;SDS011;31343;47.520;19.144;2022-12-08T04:42:35;34.92;;;20.02;;
45618;SDS011;31343;47.520;19.144;2022-12-08T04:45:00;34.80;;;19.73;;
45618;SDS011;31343;47.520;19.144;2022-12-08T04:47:27;34.60;;;20.65;;
45618;SDS011;31343;47.520;19.144;2022-12-08T04:49:52;32.97;;;19.75;;
45618;SDS011;31343;47.520;19.144;2022-12-08T04:52:18;33.72;;;17.95;;
45618;SDS011;31343;47.520;19.144;2022-12-08T04:54:44;37.83;;;19.10;;
45618;SDS011;31343;47.520;19.144;2022-12-08T04:57:11;36.67;;;19.48;;
45618;SDS011;31343;47.520;19.144;2022-12-08T04:59:37;35.95;;;17.88;;
45618;SDS011;31343;47.520;19.144;2022-12-08T05:02:03;37.58;;;19.65;;
45618;SDS011;31343;47.520;19.144;2022-12-08T05:04:28;38.85;;;20.70;;
45618;SDS011;31343;47.520;19.144;2022-12-08T05:06:54;35.05;;;19.88;;
45618;SDS011;31343;47.520;19.144;2022-12-08T05:09:19;39.65;;;20.30;;
45618;SDS011;31343;47.520;19.144;2022-12-08T05:11:45;40.55;;;20.00;;
45618;SDS011;31343;47.520;19.144;2022-12-08T05:14:11;34.28;;;19.05;;
45618;SDS011;31343;47.520;19.144;2022-12-08T05:16:39;30.65;;;18.80;;
45618;SDS011;31343;47.520;19.144;2022-12-08T05:19:06;30.65;;;17.05;;
45618;SDS011;31343;47.520;19.144;2022-12-08T05:21:31;27.88;;;16.83;;
45618;SDS011;31343;47.520;19.144;2022-12-08T05:23:57;31.52;;;17.88;;
45618;SDS011;31343;47.520;19.144;2022-12-08T05:26:23;36.20;;;17.35;;
45618;SDS011;31343;47.520;19.144;2022-12-08T05:28:49;32.65;;;17.55;;
45618;SDS011;31343;47.520;19.144;2022-12-08T05:31:15;32.72;;;17.85;;
45618;SDS011;31343;47.520;19.144;2022-12-08T05:33:42;37.83;;;20.52;;
45618;SDS011;31343;47.520;19.144;2022-12-08T05:36:10;30.50;;;17.67;;
45618;SDS011;31343;47.520;19.144;2022-12-08T05:38:37;32.03;;;15.55;;
45618;SDS011;31343;47.520;19.144;2022-12-08T05:41:04;29.92;;;17.08;;
45618;SDS011;31343;47.520;19.144;2022-12-08T05:43:34;35.65;;;17.67;;
45618;SDS011;31343;47.520;19.144;2022-12-08T05:46:00;32.03;;;16.15;;
45618;SDS011;31343;47.520;19.144;2022-12-08T05:48:26;35.90;;;18.30;;
45618;SDS011;31343;47.520;19.144;2022-12-08T05:50:52;24.48;;;14.38;;
45618;SDS011;31343;47.520;19.144;2022-12-08T05:53:18;28.60;;;16.33;;
45618;SDS011;31343;47.520;19.144;2022-12-08T05:55:45;31.90;;;16.58;;
45618;SDS011;31343;47.520;19.144;2022-12-08T05:58:12;30.13;;;16.63;;
45618;SDS011;31343;47.520;19.144;2022-12-08T06:00:39;33.60;;;16.23;;
45618;SDS011;31343;47.520;19.144;2022-12-08T06:03:05;31.90;;;16.98;;
45618;SDS011;31343;47.520;19.144;2022-12-08T06:05:34;31.50;;;17.65;;
45618;SDS011;31343;47.520;19.144;2022-12-08T06:08:00;34.03;;;17.42;;
45618;SDS011;31343;47.520;19.144;2022-12-08T06:10:25;33.90;;;18.02;;
45618;SDS011;31343;47.520;19.144;2022-12-08T06:12:51;30.70;;;15.07;;
45618;SDS011;31343;47.520;19.144;2022-12-08T06:15:17;31.55;;;17.15;;
45618;SDS011;31343;47.520;19.144;2022-12-08T06:17:43;28.63;;;16.38;;
45618;SDS011;31343;47.520;19.144;2022-12-08T06:20:08;27.77;;;16.23;;
45618;SDS011;31343;47.520;19.144;2022-12-08T06:22:34;30.15;;;17.38;;
45618;SDS011;31343;47.520;19.144;2022-12-08T06:25:00;29.92;;;17.00;;
45618;SDS011;31343;47.520;19.144;2022-12-08T06:27:26;33.63;;;16.67;;
45618;SDS011;31343;47.520;19.144;2022-12-08T06:29:52;29.88;;;16.83;;
45618;SDS011;31343;47.520;19.144;2022-12-08T06:32:17;32.22;;;17.02;;
45618;SDS011;31343;47.520;19.144;2022-12-08T06:34:43;31.70;;;16.58;;
45618;SDS011;31343;47.520;19.144;2022-12-08T06:37:10;32.08;;;17.70;;
45618;SDS011;31343;47.520;19.144;2022-12-08T06:39:36;30.90;;;17.65;;
45618;SDS011;31343;47.520;19.144;2022-12-08T06:42:01;32.80;;;16.45;;
45618;SDS011;31343;47.520;19.144;2022-12-08T06:44:46;30.73;;;17.53;;
45618;SDS011;31343;47.520;19.144;2022-12-08T06:47:13;30.60;;;17.45;;
45618;SDS011;31343;47.520;19.144;2022-12-08T06:49:39;29.35;;;18.13;;
45618;SDS011;31343;47.520;19.144;2022-12-08T06:52:04;32.50;;;17.38;;
45618;SDS011;31343;47.520;19.144;2022-12-08T06:54:30;37.58;;;18.83;;
45618;SDS011;31343;47.520;19.144;2022-12-08T06:56:56;28.65;;;16.05;;
45618;SDS011;31343;47.520;19.144;2022-12-08T06:59:21;28.13;;;15.70;;
45618;SDS011;31343;47.520;19.144;2022-12-08T07:01:50;27.35;;;17.30;;
45618;SDS011;31343;47.520;19.144;2022-12-08T07:04:16;32.13;;;17.08;;
45618;SDS011;31343;47.520;19.144;2022-12-08T07:06:41;35.10;;;18.20;;
45618;SDS011;31343;47.520;19.144;2022-12-08T07:09:07;30.00;;;16.55;;
45618;SDS011;31343;47.520;19.144;2022-12-08T07:11:34;29.27;;;17.45;;
45618;SDS011;31343;47.520;19.144;2022-12-08T07:14:02;30.13;;;17.92;;
45618;SDS011;31343;47.520;19.144;2022-12-08T07:16:27;31.35;;;17.27;;
45618;SDS011;31343;47.520;19.144;2022-12-08T07:18:53;30.27;;;17.60;;
45618;SDS011;31343;47.520;19.144;2022-12-08T07:21:18;31.83;;;17.60;;
45618;SDS011;31343;47.520;19.144;2022-12-08T07:23:45;27.52;;;16.98;;
45618;SDS011;31343;47.520;19.144;2022-12-08T07:26:12;34.63;;;19.73;;
45618;SDS011;31343;47.520;19.144;2022-12-08T07:28:38;34.17;;;19.48;;
45618;SDS011;31343;47.520;19.144;2022-12-08T07:31:05;33.80;;;19.65;;
45618;SDS011;31343;47.520;19.144;2022-12-08T07:33:32;36.47;;;20.92;;
45618;SDS011;31343;47.520;19.144;2022-12-08T07:36:00;37.08;;;19.58;;
45618;SDS011;31343;47.520;19.144;2022-12-08T07:38:30;31.02;;;18.75;;
45618;SDS011;31343;47.520;19.144;2022-12-08T07:40:56;36.33;;;19.70;;
45618;SDS011;31343;47.520;19.144;2022-12-08T07:43:23;28.75;;;17.02;;
45618;SDS011;31343;47.520;19.144;2022-12-08T07:45:48;34.50;;;17.67;;
45618;SDS011;31343;47.520;19.144;2022-12-08T07:48:15;38.97;;;19.35;;
45618;SDS011;31343;47.520;19.144;2022-12-08T07:50:41;27.55;;;17.10;;
45618;SDS011;31343;47.520;19.144;2022-12-08T07:53:07;34.20;;;16.90;;
45618;SDS011;31343;47.520;19.144;2022-12-08T07:55:33;31.27;;;17.67;;
45618;SDS011;31343;47.520;19.144;2022-12-08T07:57:59;30.65;;;16.55;;
45618;SDS011;31343;47.520;19.144;2022-12-08T08:00:24;28.75;;;18.17;;
45618;SDS011;31343;47.520;19.144;2022-12-08T08:02:50;34.65;;;18.92;;
45618;SDS011;31343;47.520;19.144;2022-12-08T08:05:16;30.60;;;17.48;;
45618;SDS011;31343;47.520;19.144;2022-12-08T08:07:41;32.88;;;17.48;;
45618;SDS011;31343;47.520;19.144;2022-12-08T08:10:08;31.15;;;17.90;;
45618;SDS011;31343;47.520;19.144;2022-12-08T08:12:35;28.77;;;16.98;;
45618;SDS011;31343;47.520;19.144;2022-12-08T08:15:02;32.28;;;18.25;;
45618;SDS011;31343;47.520;19.144;2022-12-08T08:17:32;34.22;;;17.58;;
45618;SDS011;31343;47.520;19.144;2022-12-08T08:19:58;27.58;;;16.13;;
45618;SDS011;31343;47.520;19.144;2022-12-08T08:22:24;30.95;;;17.67;;
45618;SDS011;31343;47.520;19.144;2022-12-08T08:24:51;30.98;;;17.75;;
45618;SDS011;31343;47.520;19.144;2022-12-08T08:27:16;29.50;;;17.25;;
45618;SDS011;31343;47.520;19.144;2022-12-08T08:29:42;31.55;;;18.35;;
45618;SDS011;31343;47.520;19.144;2022-12-08T08:32:08;33.88;;;19.45;;
45618;SDS011;31343;47.520;19.144;2022-12-08T08:34:34;35.85;;;20.73;;
45618;SDS011;31343;47.520;19.144;2022-12-08T08:37:00;38.28;;;21.92;;
45618;SDS011;31343;47.520;19.144;2022-12-08T08:39:25;41.50;;;21.02;;
45618;SDS011;31343;47.520;19.144;2022-12-08T08:41:51;35.63;;;21.45;;
45618;SDS011;31343;47.520;19.144;2022-12-08T08:44:17;35.10;;;21.50;;
45618;SDS011;31343;47.520;19.144;2022-12-08T08:46:43;32.40;;;19.30;;
45618;SDS011;31343;47.520;19.144;2022-12-08T08:49:08;32.22;;;19.48;;
45618;SDS011;31343;47.520;19.144;2022-12-08T08:51:34;35.08;;;20.20;;
45618;SDS011;31343;47.520;19.144;2022-12-08T08:54:00;38.03;;;21.45;;
45618;SDS011;31343;47.520;19.144;2022-12-08T08:56:26;32.53;;;20.33;;
45618;SDS011;31343;47.520;19.144;2022-12-08T08:58:52;31.45;;;20.85;;
45618;SDS011;31343;47.520;19.144;2022-12-08T09:01:22;32.33;;;20.90;;
45618;SDS011;31343;47.520;19.144;2022-12-08T09:03:51;33.88;;;20.55;;
45618;SDS011;31343;47.520;19.144;2022-12-08T09:06:18;31.65;;;18.88;;
45618;SDS011;31343;47.520;19.144;2022-12-08T09:08:45;29.95;;;19.17;;
45618;SDS011;31343;47.520;19.144;2022-12-08T09:11:10;34.10;;;19.13;;
45618;SDS011;31343;47.520;19.144;2022-12-08T09:13:37;33.53;;;20.80;;
45618;SDS011;31343;47.520;19.144;2022-12-08T09:16:03;33.55;;;20.70;;
45618;SDS011;31343;47.520;19.144;2022-12-08T09:18:31;36.63;;;18.83;;
45618;SDS011;31343;47.520;19.144;2022-12-08T09:21:02;33.15;;;19.33;;
45618;SDS011;31343;47.520;19.144;2022-12-08T09:23:33;32.17;;;19.42;;
45618;SDS011;31343;47.520;19.144;2022-12-08T09:25:59;35.25;;;19.08;;
45618;SDS011;31343;47.520;19.144;2022-12-08T09:28:26;31.27;;;16.65;;
45618;SDS011;31343;47.520;19.144;2022-12-08T09:30:52;32.90;;;19.58;;
45618;SDS011;31343;47.520;19.144;2022-12-08T09:33:18;29.35;;;18.15;;
45618;SDS011;31343;47.520;19.144;2022-12-08T09:35:44;30.75;;;19.30;;
45618;SDS011;31343;47.520;19.144;2022-12-08T09:38:09;28.70;;;17.30;;
45618;SDS011;31343;47.520;19.144;2022-12-08T09:41:11;31.33;;;17.33;;
45618;SDS011;31343;47.520;19.144;2022-12-08T09:43:52;31.73;;;18.73;;
45618;SDS011;31343;47.520;19.144;2022-12-08T09:46:20;33.85;;;17.73;;
45618;SDS011;31343;47.520;19.144;2022-12-08T09:49:04;36.70;;;19.30;;
45618;SDS011;31343;47.520;19.144;2022-12-08T09:51:38;39.88;;;19.23;;
45618;SDS011;31343;47.520;19.144;2022-12-08T09:54:16;36.70;;;19.48;;
45618;SDS011;31343;47.520;19.144;2022-12-08T09:56:42;32.92;;;19.83;;
45618;SDS011;31343;47.520;19.144;2022-12-08T10:01:34;38.35;;;20.45;;
45618;SDS011;31343;47.520;19.144;2022-12-08T10:04:10;33.45;;;18.50;;
45618;SDS011;31343;47.520;19.144;2022-12-08T10:06:50;32.63;;;20.02;;
45618;SDS011;31343;47.520;19.144;2022-12-08T10:09:46;32.50;;;18.60;;
45618;SDS011;31343;47.520;19.144;2022-12-08T10:15:01;29.58;;;19.73;;
45618;SDS011;31343;47.520;19.144;2022-12-08T10:17:38;37.25;;;19.42;;
45618;SDS011;31343;47.520;19.144;2022-12-08T10:22:41;32.72;;;17.13;;
45618;SDS011;31343;47.520;19.144;2022-12-08T10:25:16;32.70;;;18.63;;
45618;SDS011;31343;47.520;19.144;2022-12-08T10:27:45;28.38;;;16.92;;
45618;SDS011;31343;47.520;19.144;2022-12-08T10:30:14;32.75;;;19.05;;
45618;SDS011;31343;47.520;19.144;2022-12-08T10:32:43;31.15;;;17.77;;
45618;SDS011;31343;47.520;19.144;2022-12-08T10:35:13;30.17;;;18.45;;
45618;SDS011;31343;47.520;19.144;2022-12-08T10:37:40;31.73;;;18.13;;
45618;SDS011;31343;47.520;19.144;2022-12-08T10:40:18;26.88;;;16.90;;
45618;SDS011;31343;47.520;19.144;2022-12-08T10:42:51;32.85;;;18.40;;
45618;SDS011;31343;47.520;19.144;2022-12-08T10:50:28;30.80;;;16.58;;
45618;SDS011;31343;47.520;19.144;2022-12-08T10:55:38;32.25;;;17.48;;
45618;SDS011;31343;47.520;19.144;2022-12-08T10:58:23;24.88;;;16.27;;
45618;SDS011;31343;47.520;19.144;2022-12-08T11:05:58;25.75;;;15.23;;
45618;SDS011;31343;47.520;19.144;2022-12-08T11:08:26;32.55;;;17.38;;
45618;SDS011;31343;47.520;19.144;2022-12-08T11:10:53;34.88;;;19.17;;
45618;SDS011;31343;47.520;19.144;2022-12-08T11:13:23;32.00;;;16.88;;
45618;SDS011;31343;47.520;19.144;2022-12-08T11:15:51;27.55;;;15.77;;
45618;SDS011;31343;47.520;19.144;2022-12-08T11:18:27;29.02;;;15.73;;
45618;SDS011;31343;47.520;19.144;2022-12-08T11:20:56;27.77;;;15.57;;
45618;SDS011;31343;47.520;19.144;2022-12-08T11:23:24;24.30;;;12.75;;
45618;SDS011;31343;47.520;19.144;2022-12-08T11:25:52;25.20;;;13.05;;
45618;SDS011;31343;47.520;19.144;2022-12-08T11:28:22;18.15;;;11.07;;
45618;SDS011;31343;47.520;19.144;2022-12-08T11:30:51;19.30;;;9.60;;
45618;SDS011;31343;47.520;19.144;2022-12-08T11:33:24;19.52;;;10.50;;
45618;SDS011;31343;47.520;19.144;2022-12-08T11:38:21;25.52;;;10.73;;
45618;SDS011;31343;47.520;19.144;2022-12-08T11:40:50;18.67;;;10.98;;
45618;SDS011;31343;47.520;19.144;2022-12-08T11:49:00;28.25;;;12.27;;
45618;SDS011;31343;47.520;19.144;2022-12-08T11:51:34;20.58;;;10.63;;
45618;SDS011;31343;47.520;19.144;2022-12-08T11:56:33;21.88;;;11.00;;
45618;SDS011;31343;47.520;19.144;2022-12-08T12:01:37;20.65;;;11.15;;
45618;SDS011;31343;47.520;19.144;2022-12-08T12:09:16;25.27;;;14.30;;
45618;SDS011;31343;47.520;19.144;2022-12-08T12:20:34;18.65;;;10.35;;
45618;SDS011;31343;47.520;19.144;2022-12-08T12:26:00;16.00;;;9.48;;
45618;SDS011;31343;47.520;19.144;2022-12-08T12:28:34;17.65;;;9.10;;
45618;SDS011;31343;47.520;19.144;2022-12-08T12:31:09;16.30;;;8.68;;
45618;SDS011;31343;47.520;19.144;2022-12-08T12:33:37;18.35;;;9.27;;
45618;SDS011;31343;47.520;19.144;2022-12-08T12:36:06;16.05;;;8.93;;
45618;SDS011;31343;47.520;19.144;2022-12-08T12:38:35;16.15;;;8.85;;
45618;SDS011;31343;47.520;19.144;2022-12-08T12:41:25;18.02;;;8.98;;
45618;SDS011;31343;47.520;19.144;2022-12-08T12:44:06;17.00;;;9.18;;
45618;SDS011;31343;47.520;19.144;2022-12-08T12:52:03;18.33;;;9.68;;
45618;SDS011;31343;47.520;19.144;2022-12-08T12:54:35;20.35;;;10.32;;
45618;SDS011;31343;47.520;19.144;2022-12-08T12:59:46;18.10;;;9.23;;
45618;SDS011;31343;47.520;19.144;2022-12-08T13:05:00;19.45;;;9.90;;
45618;SDS011;31343;47.520;19.144;2022-12-08T13:07:27;14.52;;;8.30;;
45618;SDS011;31343;47.520;19.144;2022-12-08T13:09:58;17.48;;;9.32;;
45618;SDS011;31343;47.520;19.144;2022-12-08T13:12:36;15.75;;;9.40;;
45618;SDS011;31343;47.520;19.144;2022-12-08T13:15:03;15.55;;;8.88;;
45618;SDS011;31343;47.520;19.144;2022-12-08T13:17:31;17.88;;;8.90;;
45618;SDS011;31343;47.520;19.144;2022-12-08T13:20:03;15.18;;;8.63;;
45618;SDS011;31343;47.520;19.144;2022-12-08T13:30:42;18.48;;;10.85;;
45618;SDS011;31343;47.520;19.144;2022-12-08T13:33:18;18.83;;;11.65;;
45618;SDS011;31343;47.520;19.144;2022-12-08T13:35:54;21.13;;;10.13;;
45618;SDS011;31343;47.520;19.144;2022-12-08T13:38:27;19.60;;;10.77;;
45618;SDS011;31343;47.520;19.144;2022-12-08T13:40:55;22.33;;;12.35;;
45618;SDS011;31343;47.520;19.144;2022-12-08T13:45:56;15.23;;;9.98;;
45618;SDS011;31343;47.520;19.144;2022-12-08T13:48:26;19.83;;;11.57;;
45618;SDS011;31343;47.520;19.144;2022-12-08T13:51:06;21.08;;;11.32;;
45618;SDS011;31343;47.520;19.144;2022-12-08T13:53:36;18.25;;;9.55;;
45618;SDS011;31343;47.520;19.144;2022-12-08T13:56:04;21.65;;;10.73;;
45618;SDS011;31343;47.520;19.144;2022-12-08T13:58:34;19.65;;;11.73;;
45618;SDS011;31343;47.520;19.144;2022-12-08T14:01:03;18.88;;;10.55;;
45618;SDS011;31343;47.520;19.144;2022-12-08T14:03:48;19.85;;;12.07;;
45618;SDS011;31343;47.520;19.144;2022-12-08T14:06:42;19.95;;;10.95;;
45618;SDS011;31343;47.520;19.144;2022-12-08T14:09:26;16.35;;;9.90;;
45618;SDS011;31343;47.520;19.144;2022-12-08T14:12:17;19.42;;;9.57;;
45618;SDS011;31343;47.520;19.144;2022-12-08T14:14:46;18.33;;;10.38;;
45618;SDS011;31343;47.520;19.144;2022-12-08T14:17:18;18.25;;;9.82;;
45618;SDS011;31343;47.520;19.144;2022-12-08T14:19:53;19.95;;;10.70;;
45618;SDS011;31343;47.520;19.144;2022-12-08T14:22:38;17.15;;;10.10;;
45618;SDS011;31343;47.520;19.144;2022-12-08T14:25:05;21.52;;;10.50;;
45618;SDS011;31343;47.520;19.144;2022-12-08T14:27:36;19.75;;;11.50;;
45618;SDS011;31343;47.520;19.144;2022-12-08T14:30:07;19.35;;;12.82;;
45618;SDS011;31343;47.520;19.144;2022-12-08T14:32:55;18.48;;;10.30;;
45618;SDS011;31343;47.520;19.144;2022-12-08T14:35:29;23.13;;;10.10;;
45618;SDS011;31343;47.520;19.144;2022-12-08T14:37:57;19.27;;;10.32;;
45618;SDS011;31343;47.520;19.144;2022-12-08T14:45:33;22.02;;;11.32;;
45618;SDS011;31343;47.520;19.144;2022-12-08T14:48:18;19.83;;;11.40;;
45618;SDS011;31343;47.520;19.144;2022-12-08T14:58:45;23.75;;;12.65;;
45618;SDS011;31343;47.520;19.144;2022-12-08T15:01:14;24.27;;;11.55;;
45618;SDS011;31343;47.520;19.144;2022-12-08T15:03:45;27.80;;;13.88;;
45618;SDS011;31343;47.520;19.144;2022-12-08T15:06:12;25.38;;;14.45;;
45618;SDS011;31343;47.520;19.144;2022-12-08T15:08:54;21.98;;;11.80;;
45618;SDS011;31343;47.520;19.144;2022-12-08T15:11:26;20.85;;;12.02;;
45618;SDS011;31343;47.520;19.144;2022-12-08T15:13:55;24.25;;;12.95;;
45618;SDS011;31343;47.520;19.144;2022-12-08T15:19:16;22.17;;;12.48;;
45618;SDS011;31343;47.520;19.144;2022-12-08T15:21:52;21.00;;;12.27;;
45618;SDS011;31343;47.520;19.144;2022-12-08T15:24:21;23.13;;;12.35;;
45618;SDS011;31343;47.520;19.144;2022-12-08T15:26:49;21.95;;;12.15;;
45618;SDS011;31343;47.520;19.144;2022-12-08T15:29:18;21.80;;;12.32;;
45618;SDS011;31343;47.520;19.144;2022-12-08T15:31:46;21.45;;;12.65;;
45618;SDS011;31343;47.520;19.144;2022-12-08T15:34:11;24.70;;;12.90;;
45618;SDS011;31343;47.520;19.144;2022-12-08T15:36:37;26.00;;;12.60;;
45618;SDS011;31343;47.520;19.144;2022-12-08T15:39:20;24.45;;;12.75;;
45618;SDS011;31343;47.520;19.144;2022-12-08T15:41:59;20.02;;;11.57;;
45618;SDS011;31343;47.520;19.144;2022-12-08T15:44:26;22.48;;;11.60;;
45618;SDS011;31343;47.520;19.144;2022-12-08T15:46:53;20.05;;;11.65;;
45618;SDS011;31343;47.520;19.144;2022-12-08T15:49:19;20.17;;;12.18;;
45618;SDS011;31343;47.520;19.144;2022-12-08T15:51:47;27.65;;;14.02;;
45618;SDS011;31343;47.520;19.144;2022-12-08T15:54:13;23.33;;;12.63;;
45618;SDS011;31343;47.520;19.144;2022-12-08T15:56:40;25.05;;;12.25;;
45618;SDS011;31343;47.520;19.144;2022-12-08T15:59:14;22.60;;;13.13;;
45618;SDS011;31343;47.520;19.144;2022-12-08T16:01:41;24.25;;;12.35;;
45618;SDS011;31343;47.520;19.144;2022-12-08T16:04:07;22.83;;;13.23;;
45618;SDS011;31343;47.520;19.144;2022-12-08T16:06:35;22.27;;;12.50;;
45618;SDS011;31343;47.520;19.144;2022-12-08T16:09:01;20.95;;;11.38;;
45618;SDS011;31343;47.520;19.144;2022-12-08T16:11:27;26.85;;;12.73;;
45618;SDS011;31343;47.520;19.144;2022-12-08T16:14:11;19.70;;;11.70;;
45618;SDS011;31343;47.520;19.144;2022-12-08T16:16:37;22.30;;;12.02;;
45618;SDS011;31343;47.520;19.144;2022-12-08T16:19:04;26.63;;;12.05;;
45618;SDS011;31343;47.520;19.144;2022-12-08T16:21:29;23.33;;;13.20;;
45618;SDS011;31343;47.520;19.144;2022-12-08T16:23:55;30.98;;;16.70;;
45618;SDS011;31343;47.520;19.144;2022-12-08T16:26:21;31.33;;;16.05;;
45618;SDS011;31343;47.520;19.144;2022-12-08T16:28:47;25.25;;;12.75;;
45618;SDS011;31343;47.520;19.144;2022-12-08T16:31:13;23.83;;;12.80;;
45618;SDS011;31343;47.520;19.144;2022-12-08T16:33:39;24.10;;;12.48;;